Latest Weather Observations for Macquarie Island

IDT60801

Issued at 7:01 am EDT Friday 6 March 2015 (issued every 30 minutes, with the page automatically refreshed every 10 minutes)

About weather observations | Map of weather stations | Latest weather observations for TAS | Other Formats
Station Details ID: 300004 Name: MACQUARIE ISLAND Lat: -54.50 Lon: 158.94 Height: 6.0 m
Data from the previous 72 hours. | See also: Recent months at Macquarie Island
Date/Time
EDT
Temp
°C
App
Temp
°C
Dew
Point
Rel
Hum
%
Delta-T
°C
Wind Press
QNH
hPa
Press
MSL
hPa
Rain
since 9 am
mm
Dir
 
Spd
km/h
Gust
km/h
Spd
kts
Gust
kts
06/07:00am 5.8 -2.5 2.1 77 1.5 S 35 41 19 22 986.6 - 0.6
06/06:30am 5.5 -2.8 2.2 79 1.4 S 35 43 19 23 986.2 - 0.6
06/06:00am 5.6 -2.6 2.6 81 1.2 S 35 41 19 22 985.8 986.1 0.6
06/05:30am 5.5 -2.7 2.7 82 1.1 SSE 35 41 19 22 985.5 - 0.6
06/05:00am 5.4 -2.8 2.6 82 1.1 SSE 35 43 19 23 985.1 - 0.6
06/04:30am 5.4 -2.8 2.9 84 1.0 SSE 35 39 19 21 984.7 - 0.6
06/04:00am 5.5 -3.1 2.8 83 1.1 SSE 37 41 20 22 984.5 - 0.6
06/03:30am 5.3 -1.6 2.5 82 1.1 S 28 35 15 19 984.2 - 0.6
06/03:00am 4.9 -0.4 2.1 82 1.1 S 19 26 10 14 984.0 984.3 0.6
06/02:30am 4.9 -0.4 1.9 81 1.2 SSW 19 26 10 14 983.8 - 0.6
06/02:00am 4.9 -0.9 2.3 83 1.0 S 22 30 12 16 983.5 - 0.6
06/01:30am 5.1 0.0 2.8 85 0.9 S 19 24 10 13 983.4 - 0.6
06/01:00am 5.0 0.3 2.9 86 0.9 S 17 24 9 13 983.3 - 0.6
06/12:30am 5.0 0.7 3.0 87 0.8 S 15 17 8 9 983.0 - 0.6
06/12:00am 4.9 0.5 2.6 85 0.9 S 15 19 8 10 982.7 983.0 0.6
 
Date/Time
EDT
Temp
°C
App
Temp
°C
Dew
Point
Rel
Hum
%
Delta-T
°C
Wind Press
QNH
hPa
Press
MSL
hPa
Rain
since 9 am
mm
Dir
 
Spd
km/h
Gust
km/h
Spd
kts
Gust
kts
05/11:30pm 4.8 1.1 2.5 85 0.9 S 11 15 6 8 982.5 - 0.6
05/11:00pm 4.5 2.9 2.2 85 0.9 CALM 0 4 0 2 982.4 - 0.6
05/10:30pm 4.6 1.6 2.1 84 1.0 S 7 9 4 5 982.3 - 0.6
05/10:00pm 5.0 2.3 2.9 86 0.9 S 6 7 3 4 982.0 - 0.6
05/09:30pm 4.9 2.3 3.1 88 0.7 W 6 7 3 4 981.9 - 0.6
05/09:00pm 4.8 1.9 2.8 87 0.8 W 7 9 4 5 981.8 982.1 0.6
05/08:30pm 4.9 2.0 2.8 86 0.9 WNW 7 9 4 5 981.9 - 0.6
05/08:00pm 5.2 2.0 3.1 86 0.9 WNW 9 13 5 7 981.5 - 0.6
05/07:30pm 5.6 0.9 3.3 85 1.0 W 17 20 9 11 981.5 - 0.6
05/07:00pm 5.8 1.9 3.3 84 1.0 NW 13 17 7 9 981.2 - 0.6
05/06:30pm 5.5 0.8 3.0 84 1.0 WNW 17 20 9 11 980.9 - 0.6
05/06:00pm 5.6 0.9 3.1 84 1.1 NW 17 20 9 11 981.0 981.3 0.6
05/05:30pm 5.2 -1.3 2.7 84 1.0 W 26 33 14 18 981.2 - 0.6
05/05:00pm 6.4 0.4 3.2 80 1.3 WSW 24 32 13 17 981.2 - 0.0
05/04:30pm 7.7 3.0 3.4 74 1.8 WNW 17 20 9 11 980.9 - 0.0
05/04:00pm 8.4 1.8 4.2 75 1.8 NNW 28 33 15 18 981.1 - 0.0
05/03:30pm 8.5 1.1 3.9 73 2.0 NNW 32 37 17 20 981.2 - 0.0
05/03:00pm 8.5 0.6 4.1 74 2.0 NNW 35 41 19 22 981.5 981.8 0.0
05/02:30pm 8.3 0.3 3.9 74 1.9 NNW 35 41 19 22 981.6 - 0.0
05/02:00pm 8.5 0.9 3.8 72 2.0 NNW 33 39 18 21 981.5 - 0.0
05/01:30pm 8.6 0.7 4.2 74 1.9 NNW 35 43 19 23 981.6 - 0.0
05/01:00pm 8.6 1.3 4.6 76 1.8 NNW 32 35 17 19 981.7 - 0.0
05/12:30pm 8.3 0.9 3.9 74 1.9 NNW 32 37 17 20 981.9 - 0.0
05/12:00pm 8.3 -0.5 3.8 73 2.0 NNW 39 46 21 25 982.4 982.7 0.0
05/11:30am 8.3 -0.1 3.9 74 1.9 NNW 37 44 20 24 982.8 - 0.0
05/11:00am 8.3 -0.1 3.6 72 2.0 NNW 37 43 20 23 983.1 - 0.0
05/10:59am 8.3 -0.2 3.4 71 2.1 NNW 37 43 20 23 983.1 - 0.0
05/10:30am 8.1 2.0 4.9 80 1.4 NW 26 30 14 16 983.1 - 0.0
05/10:00am 8.1 2.3 4.3 77 1.7 NNW 24 33 13 18 982.9 - 0.0
05/09:30am 7.3 0.2 3.4 76 1.7 NNW 30 37 16 20 983.0 - 0.0
05/09:00am 7.1 -0.4 3.3 77 1.6 NW 32 41 17 22 983.0 983.3 2.8
05/08:30am 6.9 -1.6 3.2 77 1.6 NW 37 43 20 23 982.9 - 2.8
05/08:00am 6.6 -1.5 3.4 80 1.3 NW 35 43 19 23 982.6 - 2.8
05/07:30am 5.6 -2.3 2.3 79 1.3 WNW 33 41 18 22 982.6 - 2.8
05/07:22am 6.3 -1.9 2.6 77 1.5 WNW 35 39 19 21 982.5 - 2.8
05/07:00am 6.5 -2.4 2.8 77 1.5 NNW 39 50 21 27 982.2 - 2.8
05/06:30am 6.1 -1.7 2.9 80 1.3 NNW 33 43 18 23 981.9 - 2.8
05/06:00am 5.4 -3.3 1.9 78 1.4 NNW 37 43 20 23 981.8 982.1 2.8
05/05:30am 5.6 -3.1 1.9 77 1.5 NNW 37 48 20 26 981.7 - 2.8
05/05:00am 6.0 -3.1 2.1 76 1.6 NW 39 48 21 26 981.5 - 2.8
05/04:30am 5.9 -4.0 1.8 75 1.6 NW 43 52 23 28 981.2 - 2.8
05/04:00am 6.1 -3.8 2.6 78 1.4 NW 44 52 24 28 981.0 - 2.8
05/03:30am 5.7 -3.3 2.7 81 1.2 NW 39 48 21 26 980.8 - 2.8
05/03:00am 5.4 -3.2 2.8 83 1.1 NNW 37 46 20 25 980.6 980.9 2.8
05/02:56am 5.4 -3.1 2.9 84 1.0 NNW 37 43 20 23 980.6 - 2.8
05/02:30am 4.2 -3.7 2.1 86 0.8 WNW 33 39 18 21 980.6 - 2.8
05/02:29am 4.1 -3.8 2.0 86 0.8 WNW 33 39 18 21 980.7 - 2.8
05/02:22am 4.7 -7.8 2.1 83 1.0 WNW 57 65 31 35 980.5 - 2.6
05/02:19am 5.7 -3.6 3.2 84 1.0 NNW 41 65 22 35 980.4 - 2.6
05/02:00am 5.4 -4.0 2.1 79 1.3 NW 41 46 22 25 980.2 - 2.6
05/01:36am 5.7 -4.0 2.7 81 1.2 NW 43 61 23 33 979.9 - 2.6
05/01:30am 5.3 -3.7 2.3 81 1.2 NW 39 48 21 26 980.0 - 2.6
05/01:00am 5.4 -3.9 3.1 85 0.9 NW 41 48 22 26 980.0 - 2.6
05/12:30am 5.1 -4.8 3.0 86 0.9 NW 44 57 24 31 979.9 - 2.6
05/12:00am 5.5 -5.6 2.5 81 1.2 NNW 50 61 27 33 979.6 979.9 2.6
 
Date/Time
EDT
Temp
°C
App
Temp
°C
Dew
Point
Rel
Hum
%
Delta-T
°C
Wind Press
QNH
hPa
Press
MSL
hPa
Rain
since 9 am
mm
Dir
 
Spd
km/h
Gust
km/h
Spd
kts
Gust
kts
04/11:30pm 6.3 -3.5 3.1 80 1.3 NW 44 52 24 28 979.4 - 2.6
04/11:00pm 6.4 -3.8 3.0 79 1.4 NW 46 57 25 31 979.2 - 2.6
04/10:30pm 6.0 -3.6 3.2 82 1.2 NW 43 54 23 29 979.2 - 2.4
04/10:00pm 6.9 -4.9 3.0 76 1.6 NW 54 61 29 33 978.6 - 2.2
04/09:30pm 6.8 -5.0 2.9 76 1.6 NW 54 65 29 35 978.2 - 2.2
04/09:00pm 6.8 -4.9 3.2 78 1.5 NW 54 70 29 38 977.7 978.0 2.2
04/08:30pm 6.6 -5.7 3.4 80 1.3 NW 57 69 31 37 977.3 - 2.2
04/08:11pm 6.7 -5.7 2.8 76 1.6 NW 57 76 31 41 976.8 - 2.2
04/08:00pm 6.7 -5.0 3.1 78 1.5 NW 54 65 29 35 976.9 - 2.2
04/07:43pm 6.7 -5.4 3.3 79 1.4 NW 56 78 30 42 976.8 - 2.0
04/07:30pm 6.8 -5.2 3.6 80 1.4 NW 56 65 30 35 976.5 - 2.0
04/07:00pm 7.2 -5.8 3.6 78 1.5 NW 61 72 33 39 976.0 - 2.0
04/06:30pm 7.1 -6.6 3.9 80 1.4 NW 65 78 35 42 975.7 - 2.0
04/06:02pm 7.2 -5.7 4.2 81 1.3 NW 61 80 33 43 975.0 - 2.0
04/06:00pm 7.2 -6.0 4.2 81 1.3 NW 63 80 34 43 975.0 975.3 2.0
04/05:30pm 7.4 -5.5 4.2 80 1.4 NW 61 80 33 43 974.4 - 2.0
04/05:07pm 7.5 -5.3 4.5 81 1.3 NW 61 80 33 43 974.1 - 2.0
04/05:00pm 8.0 -5.9 4.8 80 1.4 NW 67 82 36 44 974.0 - 2.0
04/04:30pm 7.7 -5.2 5.7 87 0.9 NNW 63 83 34 45 973.8 - 2.0
04/04:12pm 8.3 -5.0 5.6 83 1.2 NNW 65 83 35 45 973.6 - 2.0
04/04:00pm - - - - - - - - - - - - 2.0
04/03:33pm 8.5 -5.6 5.4 81 1.4 NNW 69 87 37 47 973.3 - 2.0
04/03:30pm 8.5 -6.2 5.6 82 1.3 NNW 72 87 39 47 973.2 - 2.0
04/03:08pm 8.6 -5.2 5.4 80 1.4 NNW 67 85 36 46 973.2 - 2.0
04/03:00pm 8.7 -4.3 5.4 80 1.5 NNW 63 74 34 40 973.4 973.7 2.0
04/02:30pm 8.9 -4.4 5.6 80 1.5 NNW 65 83 35 45 973.7 - 2.0
04/02:00pm 9.2 -2.9 6.1 81 1.4 NNW 59 80 32 43 973.8 - 2.0
04/01:30pm 8.2 -5.0 6.2 87 0.9 NNW 65 85 35 46 973.8 - 2.0
04/01:14pm 8.8 -2.8 6.8 87 0.9 NNW 57 76 31 41 974.1 - 1.8
04/01:00pm 9.1 -4.4 6.5 84 1.2 NNW 67 78 36 42 973.7 - 1.8
04/12:30pm 9.3 -4.7 7.1 86 1.0 NNW 70 89 38 48 973.9 - 1.8
04/12:16pm 8.8 -5.2 6.9 88 0.9 N 70 89 38 48 973.8 - 1.8
04/12:00pm 8.5 -5.4 6.6 88 0.9 N 69 83 37 45 974.1 974.4 1.8
04/11:30am 9.0 -4.5 6.8 86 1.0 N 67 80 36 43 974.8 - 1.8
04/11:00am 8.5 -5.0 6.6 88 0.9 N 67 80 36 43 975.3 - 1.8
04/10:30am 8.6 -4.0 7.2 91 0.7 N 63 74 34 40 975.7 - 1.8
04/10:00am 8.8 -5.8 7.7 93 0.5 N 74 91 40 49 976.2 - 1.4
04/09:38am 8.5 -4.8 7.6 94 0.4 N 67 85 36 46 976.8 - 1.0
04/09:30am 8.4 -4.5 7.5 94 0.4 N 65 82 35 44 977.1 - 1.0
04/09:00am 8.4 -5.0 7.3 93 0.5 N 67 83 36 45 978.1 978.4 11.6
04/08:30am 8.3 -4.7 7.2 93 0.5 N 65 83 35 45 979.1 - 11.2
04/08:05am 8.3 -4.3 7.1 92 0.6 N 63 83 34 45 980.1 - 10.6
04/08:00am 8.3 -4.3 7.1 92 0.6 N 63 78 34 42 980.3 - 10.4
04/07:30am 8.1 -2.9 7.0 93 0.5 N 54 74 29 40 981.7 - 10.4
04/07:10am 7.9 -3.1 6.7 92 0.6 N 54 76 29 41 982.5 - 9.8
04/07:00am 7.8 -2.9 6.6 92 0.6 N 52 65 28 35 983.0 - 9.8
04/06:43am 7.7 -3.7 6.5 92 0.5 N 56 74 30 40 983.6 - 9.4
04/06:30am 7.5 -3.2 6.3 92 0.5 N 52 65 28 35 984.2 - 9.0
04/06:00am 7.4 -3.4 5.9 90 0.7 N 52 69 28 37 985.2 985.5 8.6
04/05:30am 7.6 -4.2 5.7 88 0.9 N 57 69 31 37 986.0 - 8.4
04/05:00am 7.9 -3.4 5.5 85 1.1 N 54 63 29 34 986.9 - 8.4
04/04:30am 7.8 -3.5 5.6 86 1.0 N 54 63 29 34 987.7 - 8.4
04/04:00am 7.4 -3.1 5.4 87 0.9 N 50 61 27 33 988.5 - 8.4
04/03:30am 7.4 -3.2 5.0 85 1.1 NNW 50 63 27 34 989.3 - 8.2
04/03:14am 7.4 -1.1 5.2 86 1.0 NNW 39 57 21 31 989.8 - 8.2
04/03:00am 7.2 -2.3 4.9 85 1.0 NNW 44 50 24 27 990.1 990.4 8.2
04/02:30am 7.4 -2.5 4.7 83 1.2 NNW 46 54 25 29 990.5 - 8.0
04/02:00am 7.1 -2.5 4.6 84 1.1 NNW 44 54 24 29 991.1 - 8.0
04/01:30am 7.1 -2.5 4.4 83 1.2 NNW 44 54 24 29 991.5 - 8.0
04/01:19am 7.0 -2.4 4.3 83 1.2 NNW 43 61 23 33 991.5 - 8.0
04/01:00am 6.9 -1.7 4.4 84 1.1 NW 39 50 21 27 991.8 - 8.0
04/12:47am 6.9 -1.7 4.4 84 1.1 NW 39 57 21 31 992.1 - 8.0
04/12:30am 6.7 -3.0 4.0 83 1.2 NW 44 56 24 30 992.3 - 8.0
04/12:00am 6.2 -3.3 3.9 85 1.0 NW 43 50 23 27 992.4 992.7 8.0
 
Date/Time
EDT
Temp
°C
App
Temp
°C
Dew
Point
Rel
Hum
%
Delta-T
°C
Wind Press
QNH
hPa
Press
MSL
hPa
Rain
since 9 am
mm
Dir
 
Spd
km/h
Gust
km/h
Spd
kts
Gust
kts
03/11:38pm 6.8 -3.3 3.6 80 1.4 NW 46 65 25 35 992.5 - 8.0
03/11:30pm 6.9 -3.2 3.9 81 1.3 NW 46 57 25 31 992.4 - 8.0
03/11:00pm 6.7 -3.4 3.7 81 1.3 NW 46 56 25 30 992.3 - 8.0
03/10:30pm 6.7 -3.8 3.7 81 1.3 NW 48 63 26 34 992.2 - 8.0
03/10:00pm 6.7 -3.7 4.0 83 1.2 WNW 48 57 26 31 992.1 - 8.0
03/09:30pm 6.4 -4.1 3.6 82 1.2 WNW 48 59 26 32 991.9 - 8.0
03/09:00pm 6.5 -4.8 3.5 81 1.3 WNW 52 63 28 34 991.7 992.0 8.0
03/08:33pm 5.5 -5.4 3.7 88 0.8 WNW 50 69 27 37 991.6 - 8.0
03/08:30pm 5.6 -5.7 3.4 86 0.9 WNW 52 69 28 37 991.5 - 7.8
03/08:00pm 6.2 -4.7 3.7 84 1.1 WNW 50 61 27 33 990.8 - 7.2
03/07:36pm 6.5 -5.2 3.5 81 1.3 WNW 54 72 29 39 990.2 - 7.2
03/07:30pm 6.8 -4.9 3.4 79 1.4 WNW 54 70 29 38 989.9 - 7.2
03/07:03pm 6.7 -4.2 3.5 80 1.4 WNW 50 69 27 37 989.2 - 7.2
03/07:00pm 6.7 -4.6 3.7 81 1.3 WNW 52 67 28 36 989.2 - 7.2
03/06:30pm 6.7 -6.3 3.3 79 1.4 W 61 83 33 45 988.5 - 7.2
03/06:09pm 6.6 -7.6 2.9 77 1.5 W 67 85 36 46 987.8 - 7.2
03/06:00pm 6.5 -8.7 2.6 76 1.6 W 72 87 39 47 987.5 987.8 7.2
03/05:30pm 6.5 -9.4 3.1 79 1.4 W 76 98 41 53 985.9 - 7.2
03/05:00pm 6.5 -10.7 3.5 81 1.3 W 83 113 45 61 984.3 - 7.2
03/04:55pm 6.4 -11.2 3.4 81 1.3 W 85 113 46 61 983.9 - 7.2
03/04:30pm 6.4 -12.3 3.7 83 1.1 W 91 117 49 63 981.9 - 7.2
03/04:17pm 6.3 -10.6 4.0 85 1.0 W 82 106 44 57 980.7 - 7.2
03/04:16pm 6.4 -10.5 4.2 86 0.9 W 82 98 44 53 980.7 - 7.2
03/04:00pm 5.9 -14.8 4.1 88 0.8 W 102 133 55 72 979.3 - 7.2
03/03:44pm 5.9 -12.2 4.4 90 0.6 WNW 89 122 48 66 977.6 - 7.0
03/03:30pm 6.4 -10.3 5.0 91 0.6 WNW 82 102 44 55 976.3 - 7.0
03/03:19pm 6.3 -10.5 5.3 93 0.4 WNW 83 106 45 57 975.6 - 7.0
03/03:16pm 6.4 -10.4 5.4 93 0.4 WNW 83 98 45 53 975.5 - 7.0
03/03:00pm 6.2 -7.2 5.2 93 0.4 NNW 65 83 35 45 975.5 975.8 6.8
03/02:30pm 7.4 -6.4 5.4 87 0.9 NNW 67 85 36 46 976.3 - 6.6
03/02:11pm 7.4 -6.4 5.4 87 0.9 N 67 87 36 47 976.5 - 6.6
03/02:00pm 8.0 -5.3 5.6 85 1.1 N 65 76 35 41 977.3 - 6.6
03/01:39pm 8.6 -3.9 6.1 84 1.1 N 61 80 33 43 977.9 - 6.6
03/01:30pm 8.4 -4.5 6.0 85 1.1 N 63 76 34 41 978.4 - 6.6
03/01:00pm 7.6 -5.2 6.4 92 0.5 NNW 63 87 34 47 979.4 - 6.6
03/12:30pm 7.6 -5.3 5.7 88 0.9 N 63 82 34 44 980.1 - 5.8
03/12:17pm 8.4 -3.7 6.2 86 1.0 N 59 85 32 46 980.2 - 5.6
03/12:00pm 9.1 -2.2 7.1 87 1.0 N 56 67 30 36 981.0 981.3 5.6
03/11:30am 8.3 -3.3 6.8 90 0.7 N 57 69 31 37 981.7 - 5.6
03/11:10am 8.4 -4.3 6.9 90 0.7 N 63 100 34 54 982.1 - 5.4
03/11:00am 8.6 -4.0 7.4 92 0.6 N 63 72 34 39 982.4 - 5.4
03/10:30am 8.1 -3.1 7.5 96 0.3 N 56 69 30 37 983.6 - 5.2
03/10:00am 8.4 -4.5 7.5 94 0.4 N 65 85 35 46 984.7 - 2.6
03/09:30am 8.2 -4.0 7.3 94 0.4 N 61 83 33 45 986.5 - 1.2
03/09:00am 8.3 -3.6 7.1 92 0.6 N 59 87 32 47 987.7 988.0 0.4
03/08:30am 8.9 -2.1 6.7 86 1.0 N 54 74 29 40 989.2 - 0.0
03/08:24am 8.8 -2.3 6.4 85 1.1 N 54 74 29 40 989.4 - 0.0
03/08:00am 8.6 -1.4 6.2 85 1.1 N 48 59 26 32 990.6 - 0.0
03/07:30am 8.6 -1.4 6.2 85 1.1 N 48 59 26 32 991.7 - 0.0

Other Formats:

Comma delimited format used in spreadsheet applications
http://www.bom.gov.au/fwo/IDT60801/IDT60801.94998.axf

JavaScript Object Notation format (JSON) in row-major order
http://www.bom.gov.au/fwo/IDT60801/IDT60801.94998.json